sensor_id;sensor_type;location;lat;lon;timestamp;pressure;altitude;pressure_sealevel;temperature;humidity
66880;BME280;53789;51.392;10.234;2022-10-17T00:00:12;98680.88;;;13.51;89.61
66880;BME280;53789;51.392;10.234;2022-10-17T00:00:32;98680.03;;;13.50;89.19
66880;BME280;53789;51.392;10.234;2022-10-17T00:00:53;98676.13;;;13.51;89.07
66880;BME280;53789;51.392;10.234;2022-10-17T00:01:13;98674.50;;;13.50;89.27
66880;BME280;53789;51.392;10.234;2022-10-17T00:01:33;98676.94;;;13.52;89.18
66880;BME280;53789;51.392;10.234;2022-10-17T00:01:54;98672.56;;;13.51;89.05
66880;BME280;53789;51.392;10.234;2022-10-17T00:02:14;98670.63;;;13.51;88.70
66880;BME280;53789;51.392;10.234;2022-10-17T00:02:34;98674.19;;;13.52;89.23
66880;BME280;53789;51.392;10.234;2022-10-17T00:02:55;98678.91;;;13.51;89.26
66880;BME280;53789;51.392;10.234;2022-10-17T00:03:15;98671.41;;;13.52;89.29
66880;BME280;53789;51.392;10.234;2022-10-17T00:03:38;98683.31;;;13.52;89.10
66880;BME280;53789;51.392;10.234;2022-10-17T00:03:58;98675.03;;;13.52;89.20
66880;BME280;53789;51.392;10.234;2022-10-17T00:04:19;98680.53;;;13.52;89.05
66880;BME280;53789;51.392;10.234;2022-10-17T00:04:39;98675.81;;;13.53;88.79
66880;BME280;53789;51.392;10.234;2022-10-17T00:04:59;98671.94;;;13.54;89.04
66880;BME280;53789;51.392;10.234;2022-10-17T00:05:20;98675.81;;;13.53;89.16
66880;BME280;53789;51.392;10.234;2022-10-17T00:05:45;98673.88;;;13.53;89.15
66880;BME280;53789;51.392;10.234;2022-10-17T00:06:09;98675.81;;;13.53;89.03
66880;BME280;53789;51.392;10.234;2022-10-17T00:06:30;98675.81;;;13.53;89.10
66880;BME280;53789;51.392;10.234;2022-10-17T00:06:50;98673.06;;;13.53;89.55
66880;BME280;53789;51.392;10.234;2022-10-17T00:07:10;98673.06;;;13.53;89.36
66880;BME280;53789;51.392;10.234;2022-10-17T00:07:31;98675.81;;;13.53;88.90
66880;BME280;53789;51.392;10.234;2022-10-17T00:07:52;98679.41;;;13.53;89.27
66880;BME280;53789;51.392;10.234;2022-10-17T00:08:14;98675.03;;;13.52;89.37
66880;BME280;53789;51.392;10.234;2022-10-17T00:08:37;98675.81;;;13.53;89.36
66880;BME280;53789;51.392;10.234;2022-10-17T00:08:57;98673.06;;;13.53;89.04
66880;BME280;53789;51.392;10.234;2022-10-17T00:09:17;98669.50;;;13.52;88.88
66880;BME280;53789;51.392;10.234;2022-10-17T00:09:41;98673.06;;;13.53;89.21
66880;BME280;53789;51.392;10.234;2022-10-17T00:10:03;98673.06;;;13.53;89.36
66880;BME280;53789;51.392;10.234;2022-10-17T00:10:23;98673.06;;;13.53;88.98
66880;BME280;53789;51.392;10.234;2022-10-17T00:10:44;98675.03;;;13.52;89.61
66880;BME280;53789;51.392;10.234;2022-10-17T00:11:08;98673.38;;;13.51;89.33
66880;BME280;53789;51.392;10.234;2022-10-17T00:11:31;98672.25;;;13.52;89.25
66880;BME280;53789;51.392;10.234;2022-10-17T00:11:51;98674.19;;;13.52;88.83
66880;BME280;53789;51.392;10.234;2022-10-17T00:12:12;98675.03;;;13.52;89.10
66880;BME280;53789;51.392;10.234;2022-10-17T00:12:32;98672.25;;;13.52;89.36
66880;BME280;53789;51.392;10.234;2022-10-17T00:12:53;98677.78;;;13.52;88.88
66880;BME280;53789;51.392;10.234;2022-10-17T00:13:13;98683.31;;;13.52;88.81
66880;BME280;53789;51.392;10.234;2022-10-17T00:13:34;98671.41;;;13.52;88.70
66880;BME280;53789;51.392;10.234;2022-10-17T00:13:55;98669.50;;;13.52;88.96
66880;BME280;53789;51.392;10.234;2022-10-17T00:14:15;98673.06;;;13.53;89.00
66880;BME280;53789;51.392;10.234;2022-10-17T00:14:36;98667.53;;;13.53;88.91
66880;BME280;53789;51.392;10.234;2022-10-17T00:14:56;98676.63;;;13.53;88.68
66880;BME280;53789;51.392;10.234;2022-10-17T00:15:18;98675.03;;;13.52;88.98
66880;BME280;53789;51.392;10.234;2022-10-17T00:15:42;98674.69;;;13.54;88.21
66880;BME280;53789;51.392;10.234;2022-10-17T00:16:03;98678.28;;;13.54;88.88
66880;BME280;53789;51.392;10.234;2022-10-17T00:16:32;98678.28;;;13.54;88.49
66880;BME280;53789;51.392;10.234;2022-10-17T00:16:53;98676.31;;;13.55;88.60
66880;BME280;53789;51.392;10.234;2022-10-17T00:17:13;98676.31;;;13.55;88.88
66880;BME280;53789;51.392;10.234;2022-10-17T00:17:34;98679.06;;;13.55;88.43
66880;BME280;53789;51.392;10.234;2022-10-17T00:17:54;98669.97;;;13.54;88.57
66880;BME280;53789;51.392;10.234;2022-10-17T00:18:14;98671.63;;;13.55;88.53
66880;BME280;53789;51.392;10.234;2022-10-17T00:18:34;98677.16;;;13.55;88.47
66880;BME280;53789;51.392;10.234;2022-10-17T00:18:55;98674.38;;;13.55;88.79
66880;BME280;53789;51.392;10.234;2022-10-17T00:19:16;98672.75;;;13.54;88.49
66880;BME280;53789;51.392;10.234;2022-10-17T00:19:36;98671.63;;;13.55;88.59
66880;BME280;53789;51.392;10.234;2022-10-17T00:20:00;98669.97;;;13.54;87.85
66880;BME280;53789;51.392;10.234;2022-10-17T00:20:21;98677.16;;;13.55;88.71
66880;BME280;53789;51.392;10.234;2022-10-17T00:20:41;98677.16;;;13.55;88.34
66880;BME280;53789;51.392;10.234;2022-10-17T00:21:02;98674.38;;;13.55;87.94
66880;BME280;53789;51.392;10.234;2022-10-17T00:21:23;98669.66;;;13.56;88.20
66880;BME280;53789;51.392;10.234;2022-10-17T00:21:44;98671.63;;;13.55;88.17
66880;BME280;53789;51.392;10.234;2022-10-17T00:22:04;98671.63;;;13.55;88.68
66880;BME280;53789;51.392;10.234;2022-10-17T00:22:25;98668.84;;;13.55;88.43
66880;BME280;53789;51.392;10.234;2022-10-17T00:22:46;98674.38;;;13.55;88.53
66880;BME280;53789;51.392;10.234;2022-10-17T00:23:06;98668.84;;;13.55;88.00
66880;BME280;53789;51.392;10.234;2022-10-17T00:23:26;98675.19;;;13.56;88.19
66880;BME280;53789;51.392;10.234;2022-10-17T00:23:48;98668.03;;;13.55;88.23
66880;BME280;53789;51.392;10.234;2022-10-17T00:24:08;98676.00;;;13.56;87.96
66880;BME280;53789;51.392;10.234;2022-10-17T00:24:30;98669.66;;;13.56;87.88
66880;BME280;53789;51.392;10.234;2022-10-17T00:24:50;98677.94;;;13.56;87.93
66880;BME280;53789;51.392;10.234;2022-10-17T00:25:11;98670.47;;;13.56;87.57
66880;BME280;53789;51.392;10.234;2022-10-17T00:25:31;98670.47;;;13.56;87.76
66880;BME280;53789;51.392;10.234;2022-10-17T00:26:04;98672.44;;;13.56;87.28
66880;BME280;53789;51.392;10.234;2022-10-17T00:26:25;98666.09;;;13.55;87.36
66880;BME280;53789;51.392;10.234;2022-10-17T00:26:45;98671.63;;;13.55;87.68
66880;BME280;53789;51.392;10.234;2022-10-17T00:27:05;98674.06;;;13.57;86.89
66880;BME280;53789;51.392;10.234;2022-10-17T00:27:26;98678.75;;;13.56;86.86
66880;BME280;53789;51.392;10.234;2022-10-17T00:27:46;98673.56;;;13.55;86.85
66880;BME280;53789;51.392;10.234;2022-10-17T00:28:14;98673.22;;;13.56;86.86
66880;BME280;53789;51.392;10.234;2022-10-17T00:28:34;98674.38;;;13.55;87.10
66880;BME280;53789;51.392;10.234;2022-10-17T00:28:55;98673.22;;;13.56;86.84
66880;BME280;53789;51.392;10.234;2022-10-17T00:29:15;98679.06;;;13.55;87.14
66880;BME280;53789;51.392;10.234;2022-10-17T00:29:35;98678.28;;;13.54;87.19
66880;BME280;53789;51.392;10.234;2022-10-17T00:29:56;98675.50;;;13.54;86.87
66880;BME280;53789;51.392;10.234;2022-10-17T00:30:16;98673.56;;;13.55;86.98
66880;BME280;53789;51.392;10.234;2022-10-17T00:30:37;98679.41;;;13.53;86.39
66880;BME280;53789;51.392;10.234;2022-10-17T00:31:00;98692.91;;;13.55;86.59
66880;BME280;53789;51.392;10.234;2022-10-17T00:31:22;98674.69;;;13.54;86.03
66880;BME280;53789;51.392;10.234;2022-10-17T00:31:42;98680.22;;;13.54;86.53
66880;BME280;53789;51.392;10.234;2022-10-17T00:32:02;98682.16;;;13.53;86.41
66880;BME280;53789;51.392;10.234;2022-10-17T00:32:23;98684.13;;;13.53;85.91
66880;BME280;53789;51.392;10.234;2022-10-17T00:32:43;98678.59;;;13.53;86.15
66880;BME280;53789;51.392;10.234;2022-10-17T00:33:04;98678.91;;;13.51;86.15
66880;BME280;53789;51.392;10.234;2022-10-17T00:33:26;98688.00;;;13.52;86.12
66880;BME280;53789;51.392;10.234;2022-10-17T00:33:47;98684.44;;;13.51;86.50
66880;BME280;53789;51.392;10.234;2022-10-17T00:34:07;98687.19;;;13.51;86.32
66880;BME280;53789;51.392;10.234;2022-10-17T00:34:28;98682.78;;;13.50;86.01
66880;BME280;53789;51.392;10.234;2022-10-17T00:34:48;98681.19;;;13.49;86.11
66880;BME280;53789;51.392;10.234;2022-10-17T00:35:09;98679.53;;;13.48;86.16
66880;BME280;53789;51.392;10.234;2022-10-17T00:35:30;98685.06;;;13.48;85.58
66880;BME280;53789;51.392;10.234;2022-10-17T00:35:50;98684.22;;;13.48;86.30
66880;BME280;53789;51.392;10.234;2022-10-17T00:36:16;98687.81;;;13.48;86.21
66880;BME280;53789;51.392;10.234;2022-10-17T00:36:36;98679.84;;;13.47;86.10
66880;BME280;53789;51.392;10.234;2022-10-17T00:36:57;98686.50;;;13.46;86.16
66880;BME280;53789;51.392;10.234;2022-10-17T00:37:17;98684.22;;;13.48;86.67
66880;BME280;53789;51.392;10.234;2022-10-17T00:37:38;98685.38;;;13.47;86.03
66880;BME280;53789;51.392;10.234;2022-10-17T00:37:58;98686.19;;;13.47;86.10
66880;BME280;53789;51.392;10.234;2022-10-17T00:38:18;98687.31;;;13.46;85.58
66880;BME280;53789;51.392;10.234;2022-10-17T00:38:40;98688.94;;;13.47;85.59
66880;BME280;53789;51.392;10.234;2022-10-17T00:39:01;98685.38;;;13.47;85.65
66880;BME280;53789;51.392;10.234;2022-10-17T00:39:21;98679.84;;;13.47;85.79
66880;BME280;53789;51.392;10.234;2022-10-17T00:39:41;98687.31;;;13.46;85.55
66880;BME280;53789;51.392;10.234;2022-10-17T00:40:03;98685.38;;;13.47;85.53
66880;BME280;53789;51.392;10.234;2022-10-17T00:40:23;98692.03;;;13.46;85.26
66880;BME280;53789;51.392;10.234;2022-10-17T00:40:44;98685.69;;;13.45;85.55
66880;BME280;53789;51.392;10.234;2022-10-17T00:41:05;98686.50;;;13.46;85.92
66880;BME280;53789;51.392;10.234;2022-10-17T00:41:30;98682.94;;;13.45;85.77
66880;BME280;53789;51.392;10.234;2022-10-17T00:41:51;98690.38;;;13.45;85.83
66880;BME280;53789;51.392;10.234;2022-10-17T00:42:12;98690.38;;;13.45;84.89
66880;BME280;53789;51.392;10.234;2022-10-17T00:42:32;98694.31;;;13.44;85.42
66880;BME280;53789;51.392;10.234;2022-10-17T00:42:53;98693.47;;;13.43;85.36
66880;BME280;53789;51.392;10.234;2022-10-17T00:43:17;98696.22;;;13.43;85.69
66880;BME280;53789;51.392;10.234;2022-10-17T00:45:38;98695.41;;;13.43;85.73
66880;BME280;53789;51.392;10.234;2022-10-17T00:45:58;98694.31;;;13.44;85.97
66880;BME280;53789;51.392;10.234;2022-10-17T00:46:20;98694.63;;;13.42;85.94
66880;BME280;53789;51.392;10.234;2022-10-17T00:46:41;98691.84;;;13.42;85.98
66880;BME280;53789;51.392;10.234;2022-10-17T00:47:10;98694.63;;;13.42;85.85
66880;BME280;53789;51.392;10.234;2022-10-17T00:47:34;98695.75;;;13.41;86.26
66880;BME280;53789;51.392;10.234;2022-10-17T00:48:02;98690.22;;;13.41;85.96
66880;BME280;53789;51.392;10.234;2022-10-17T00:48:24;98690.22;;;13.41;86.10
66880;BME280;53789;51.392;10.234;2022-10-17T00:48:47;98692.97;;;13.41;86.02
66880;BME280;53789;51.392;10.234;2022-10-17T00:49:10;98689.41;;;13.40;85.83
66880;BME280;53789;51.392;10.234;2022-10-17T00:49:34;98698.50;;;13.41;85.98
66880;BME280;53789;51.392;10.234;2022-10-17T00:49:55;98695.75;;;13.41;86.13
66880;BME280;53789;51.392;10.234;2022-10-17T00:50:17;98688.25;;;13.41;86.02
66880;BME280;53789;51.392;10.234;2022-10-17T00:50:42;98690.22;;;13.41;86.00
66880;BME280;53789;51.392;10.234;2022-10-17T00:51:03;98691.34;;;13.40;86.01
66880;BME280;53789;51.392;10.234;2022-10-17T00:51:40;98693.28;;;13.39;85.43
66880;BME280;53789;51.392;10.234;2022-10-17T00:52:07;98694.94;;;13.40;85.58
66880;BME280;53789;51.392;10.234;2022-10-17T00:52:29;98692.97;;;13.41;85.51
66880;BME280;53789;51.392;10.234;2022-10-17T00:52:51;98695.75;;;13.41;85.53
66880;BME280;53789;51.392;10.234;2022-10-17T00:53:13;98695.75;;;13.41;85.74
66880;BME280;53789;51.392;10.234;2022-10-17T00:53:36;98692.47;;;13.39;85.62
66880;BME280;53789;51.392;10.234;2022-10-17T00:54:01;98692.47;;;13.39;85.64
66880;BME280;53789;51.392;10.234;2022-10-17T00:54:27;98692.47;;;13.39;84.96
66880;BME280;53789;51.392;10.234;2022-10-17T00:54:56;98690.03;;;13.37;85.66
66880;BME280;53789;51.392;10.234;2022-10-17T00:55:23;98689.19;;;13.37;86.19
66880;BME280;53789;51.392;10.234;2022-10-17T00:55:49;98691.97;;;13.37;86.30
66880;BME280;53789;51.392;10.234;2022-10-17T00:56:10;98691.97;;;13.37;86.19
66880;BME280;53789;51.392;10.234;2022-10-17T00:56:32;98695.84;;;13.36;85.75
66880;BME280;53789;51.392;10.234;2022-10-17T00:56:53;98692.28;;;13.35;85.76
66880;BME280;53789;51.392;10.234;2022-10-17T00:57:15;98689.50;;;13.35;85.53
66880;BME280;53789;51.392;10.234;2022-10-17T00:57:38;98697.00;;;13.35;85.35
66880;BME280;53789;51.392;10.234;2022-10-17T00:58:02;98700.88;;;13.34;85.82
66880;BME280;53789;51.392;10.234;2022-10-17T00:58:23;98690.63;;;13.34;85.22
66880;BME280;53789;51.392;10.234;2022-10-17T00:58:44;98689.84;;;13.34;85.71
66880;BME280;53789;51.392;10.234;2022-10-17T00:59:07;98691.47;;;13.35;86.36
66880;BME280;53789;51.392;10.234;2022-10-17T00:59:32;98692.28;;;13.35;85.86
66880;BME280;53789;51.392;10.234;2022-10-17T00:59:56;98697.81;;;13.35;86.04
66880;BME280;53789;51.392;10.234;2022-10-17T01:00:18;98691.16;;;13.36;86.00
66880;BME280;53789;51.392;10.234;2022-10-17T01:00:40;98688.41;;;13.36;86.33
66880;BME280;53789;51.392;10.234;2022-10-17T01:01:02;98696.38;;;13.38;85.95
66880;BME280;53789;51.392;10.234;2022-10-17T01:01:22;98693.91;;;13.36;86.01
66880;BME280;53789;51.392;10.234;2022-10-17T01:01:51;98694.72;;;13.37;86.76
66880;BME280;53789;51.392;10.234;2022-10-17T01:02:17;98698.00;;;13.39;87.08
66880;BME280;53789;51.392;10.234;2022-10-17T01:02:38;98693.28;;;13.39;87.38
66880;BME280;53789;51.392;10.234;2022-10-17T01:02:59;98695.25;;;13.39;87.39
66880;BME280;53789;51.392;10.234;2022-10-17T01:03:19;98688.56;;;13.40;87.29
66880;BME280;53789;51.392;10.234;2022-10-17T01:03:40;98697.38;;;13.42;87.00
66880;BME280;53789;51.392;10.234;2022-10-17T01:04:00;98692.66;;;13.43;87.50
66880;BME280;53789;51.392;10.234;2022-10-17T01:04:21;98697.88;;;13.44;87.63
66880;BME280;53789;51.392;10.234;2022-10-17T01:04:44;98692.03;;;13.46;88.08
66880;BME280;53789;51.392;10.234;2022-10-17T01:05:06;98698.34;;;13.46;88.06
66880;BME280;53789;51.392;10.234;2022-10-17T01:05:28;98692.50;;;13.48;88.19
66880;BME280;53789;51.392;10.234;2022-10-17T01:05:49;98699.19;;;13.47;87.71
66880;BME280;53789;51.392;10.234;2022-10-17T01:06:09;98693.66;;;13.47;87.98
66880;BME280;53789;51.392;10.234;2022-10-17T01:06:30;98691.72;;;13.47;86.92
66880;BME280;53789;51.392;10.234;2022-10-17T01:06:50;98696.13;;;13.48;87.31
66880;BME280;53789;51.392;10.234;2022-10-17T01:07:10;98701.66;;;13.48;86.88
66880;BME280;53789;51.392;10.234;2022-10-17T01:07:31;98690.59;;;13.48;87.15
66880;BME280;53789;51.392;10.234;2022-10-17T01:07:53;98693.34;;;13.48;86.91
66880;BME280;53789;51.392;10.234;2022-10-17T01:08:13;98696.13;;;13.48;86.66
66880;BME280;53789;51.392;10.234;2022-10-17T01:08:34;98685.06;;;13.48;86.80
66880;BME280;53789;51.392;10.234;2022-10-17T01:08:55;98697.75;;;13.49;86.35
66880;BME280;53789;51.392;10.234;2022-10-17T01:09:16;98698.56;;;13.50;87.01
66880;BME280;53789;51.392;10.234;2022-10-17T01:09:38;98702.13;;;13.50;87.26
66880;BME280;53789;51.392;10.234;2022-10-17T01:09:59;98702.13;;;13.50;87.15
66880;BME280;53789;51.392;10.234;2022-10-17T01:10:21;98700.19;;;13.51;87.32
66880;BME280;53789;51.392;10.234;2022-10-17T01:11:45;98697.13;;;13.52;87.17
66880;BME280;53789;51.392;10.234;2022-10-17T01:12:47;98702.66;;;13.52;86.43
66880;BME280;53789;51.392;10.234;2022-10-17T01:13:12;98698.75;;;13.53;88.15
66880;BME280;53789;51.392;10.234;2022-10-17T01:15:47;98702.81;;;13.56;87.94
66880;BME280;53789;51.392;10.234;2022-10-17T01:16:21;98698.09;;;13.56;86.85
66880;BME280;53789;51.392;10.234;2022-10-17T01:17:09;98701.69;;;13.57;86.50
66880;BME280;53789;51.392;10.234;2022-10-17T01:18:07;98695.03;;;13.58;87.38
66880;BME280;53789;51.392;10.234;2022-10-17T01:18:43;98700.78;;;13.62;88.61
66880;BME280;53789;51.392;10.234;2022-10-17T01:21:54;98694.00;;;13.68;87.29
66880;BME280;53789;51.392;10.234;2022-10-17T01:22:35;98703.59;;;13.70;87.53
66880;BME280;53789;51.392;10.234;2022-10-17T01:28:37;98693.56;;;13.74;87.25
66880;BME280;53789;51.392;10.234;2022-10-17T01:31:15;98694.53;;;13.79;87.08
66880;BME280;53789;51.392;10.234;2022-10-17T01:31:54;98691.44;;;13.80;86.86
66880;BME280;53789;51.392;10.234;2022-10-17T01:32:28;98693.09;;;13.81;87.35
66880;BME280;53789;51.392;10.234;2022-10-17T01:35:09;98695.72;;;13.86;87.03
66880;BME280;53789;51.392;10.234;2022-10-17T01:35:51;98688.25;;;13.87;87.67
66880;BME280;53789;51.392;10.234;2022-10-17T01:36:18;98697.03;;;13.89;88.52
66880;BME280;53789;51.392;10.234;2022-10-17T01:36:52;98692.81;;;13.91;87.94
66880;BME280;53789;51.392;10.234;2022-10-17T01:37:32;98688.94;;;13.92;87.19
66880;BME280;53789;51.392;10.234;2022-10-17T01:38:10;98690.53;;;13.93;86.72
66880;BME280;53789;51.392;10.234;2022-10-17T01:39:49;98693.81;;;13.96;86.36
66880;BME280;53789;51.392;10.234;2022-10-17T01:40:45;98698.50;;;13.95;86.38
66880;BME280;53789;51.392;10.234;2022-10-17T01:41:34;98695.75;;;13.95;85.96
66880;BME280;53789;51.392;10.234;2022-10-17T01:43:40;98697.72;;;13.95;85.94
66880;BME280;53789;51.392;10.234;2022-10-17T01:44:22;98699.66;;;13.94;86.31
66880;BME280;53789;51.392;10.234;2022-10-17T01:46:06;98699.16;;;13.92;85.45
66880;BME280;53789;51.392;10.234;2022-10-17T01:46:40;98703.06;;;13.91;85.82
66880;BME280;53789;51.392;10.234;2022-10-17T01:47:07;98695.59;;;13.91;86.15
66880;BME280;53789;51.392;10.234;2022-10-17T01:47:31;98698.66;;;13.90;85.89
66880;BME280;53789;51.392;10.234;2022-10-17T01:47:55;98699.78;;;13.89;85.52
66880;BME280;53789;51.392;10.234;2022-10-17T01:48:22;98705.31;;;13.89;85.60
66880;BME280;53789;51.392;10.234;2022-10-17T01:48:45;98698.97;;;13.88;86.05
66880;BME280;53789;51.392;10.234;2022-10-17T01:49:08;98699.78;;;13.89;85.99
66880;BME280;53789;51.392;10.234;2022-10-17T01:49:33;98696.22;;;13.88;85.99
66880;BME280;53789;51.392;10.234;2022-10-17T01:50:06;98698.97;;;13.88;85.99
66880;BME280;53789;51.392;10.234;2022-10-17T01:50:36;98693.47;;;13.88;85.67
66880;BME280;53789;51.392;10.234;2022-10-17T01:51:30;98698.50;;;13.86;85.82
66880;BME280;53789;51.392;10.234;2022-10-17T01:51:59;98698.19;;;13.88;85.80
66880;BME280;53789;51.392;10.234;2022-10-17T01:52:28;98696.53;;;13.87;85.68
66880;BME280;53789;51.392;10.234;2022-10-17T01:53:02;98695.72;;;13.86;85.12
66880;BME280;53789;51.392;10.234;2022-10-17T01:53:54;98692.44;;;13.84;85.52
66880;BME280;53789;51.392;10.234;2022-10-17T01:54:49;98690.81;;;13.83;86.23
66880;BME280;53789;51.392;10.234;2022-10-17T01:55:29;98697.19;;;13.84;85.95
66880;BME280;53789;51.392;10.234;2022-10-17T01:55:55;98696.34;;;13.83;85.94
66880;BME280;53789;51.392;10.234;2022-10-17T01:56:20;98695.53;;;13.83;85.52
66880;BME280;53789;51.392;10.234;2022-10-17T01:56:47;98686.44;;;13.82;85.36
66880;BME280;53789;51.392;10.234;2022-10-17T01:57:24;98693.09;;;13.81;85.42
66880;BME280;53789;51.392;10.234;2022-10-17T01:57:52;98681.22;;;13.81;85.42
66880;BME280;53789;51.392;10.234;2022-10-17T01:58:31;98693.91;;;13.82;85.38
66880;BME280;53789;51.392;10.234;2022-10-17T01:58:59;98693.09;;;13.81;85.48
66880;BME280;53789;51.392;10.234;2022-10-17T01:59:26;98691.97;;;13.82;85.40
66880;BME280;53789;51.392;10.234;2022-10-17T01:59:51;98691.13;;;13.82;85.30
66880;BME280;53789;51.392;10.234;2022-10-17T02:00:21;98690.31;;;13.81;84.95
66880;BME280;53789;51.392;10.234;2022-10-17T02:00:45;98689.50;;;13.81;85.26
66880;BME280;53789;51.392;10.234;2022-10-17T02:01:11;98694.22;;;13.80;85.00
66880;BME280;53789;51.392;10.234;2022-10-17T02:01:34;98685.91;;;13.80;85.43
66880;BME280;53789;51.392;10.234;2022-10-17T02:01:58;98690.31;;;13.81;84.98
66880;BME280;53789;51.392;10.234;2022-10-17T02:02:20;98688.69;;;13.80;85.08
66880;BME280;53789;51.392;10.234;2022-10-17T02:02:45;98685.91;;;13.80;85.19
66880;BME280;53789;51.392;10.234;2022-10-17T02:03:13;98685.91;;;13.80;85.49
66880;BME280;53789;51.392;10.234;2022-10-17T02:03:39;98683.16;;;13.80;85.99
66880;BME280;53789;51.392;10.234;2022-10-17T02:04:02;98689.50;;;13.81;85.83
66880;BME280;53789;51.392;10.234;2022-10-17T02:04:24;98679.59;;;13.80;85.87
66880;BME280;53789;51.392;10.234;2022-10-17T02:04:47;98687.88;;;13.80;85.31
66880;BME280;53789;51.392;10.234;2022-10-17T02:05:10;98690.63;;;13.80;85.67
66880;BME280;53789;51.392;10.234;2022-10-17T02:05:36;98686.22;;;13.79;86.04
66880;BME280;53789;51.392;10.234;2022-10-17T02:05:57;98687.38;;;13.78;85.71
66880;BME280;53789;51.392;10.234;2022-10-17T02:06:18;98684.63;;;13.78;85.66
66880;BME280;53789;51.392;10.234;2022-10-17T02:06:38;98694.03;;;13.77;86.18
66880;BME280;53789;51.392;10.234;2022-10-17T02:07:08;98685.75;;;13.77;85.73
66880;BME280;53789;51.392;10.234;2022-10-17T02:07:29;98692.09;;;13.77;85.64
66880;BME280;53789;51.392;10.234;2022-10-17T02:07:49;98690.47;;;13.76;85.56
66880;BME280;53789;51.392;10.234;2022-10-17T02:08:10;98684.09;;;13.75;85.41
66880;BME280;53789;51.392;10.234;2022-10-17T02:09:01;98684.09;;;13.75;85.46
66880;BME280;53789;51.392;10.234;2022-10-17T02:09:35;98688.84;;;13.75;85.49
66880;BME280;53789;51.392;10.234;2022-10-17T02:09:55;98691.59;;;13.75;86.20
66880;BME280;53789;51.392;10.234;2022-10-17T02:10:29;98693.56;;;13.74;86.12
66880;BME280;53789;51.392;10.234;2022-10-17T02:11:25;98687.19;;;13.74;86.16
66880;BME280;53789;51.392;10.234;2022-10-17T02:12:03;98687.19;;;13.74;86.20
66880;BME280;53789;51.392;10.234;2022-10-17T02:15:46;98680.66;;;13.70;85.47
66880;BME280;53789;51.392;10.234;2022-10-17T02:19:42;98684.56;;;13.69;86.13
66880;BME280;53789;51.392;10.234;2022-10-17T02:20:22;98691.22;;;13.68;85.71
66880;BME280;53789;51.392;10.234;2022-10-17T02:21:01;98687.34;;;13.69;85.90
66880;BME280;53789;51.392;10.234;2022-10-17T02:22:03;98692.03;;;13.68;85.55
66880;BME280;53789;51.392;10.234;2022-10-17T02:23:44;98688.47;;;13.68;86.20
66880;BME280;53789;51.392;10.234;2022-10-17T02:25:03;98692.03;;;13.68;86.13
66880;BME280;53789;51.392;10.234;2022-10-17T02:26:35;98694.00;;;13.68;86.14
66880;BME280;53789;51.392;10.234;2022-10-17T02:28:20;98695.44;;;13.65;85.60
66880;BME280;53789;51.392;10.234;2022-10-17T02:29:14;98692.97;;;13.64;85.67
66880;BME280;53789;51.392;10.234;2022-10-17T02:30:01;98692.50;;;13.62;85.24
66880;BME280;53789;51.392;10.234;2022-10-17T02:31:23;98688.69;;;13.57;85.11
66880;BME280;53789;51.392;10.234;2022-10-17T02:31:55;98689.00;;;13.56;85.55
66880;BME280;53789;51.392;10.234;2022-10-17T02:32:48;98689.31;;;13.54;85.77
66880;BME280;53789;51.392;10.234;2022-10-17T02:34:15;98686.88;;;13.53;85.50
66880;BME280;53789;51.392;10.234;2022-10-17T02:34:42;98691.59;;;13.52;85.15
66880;BME280;53789;51.392;10.234;2022-10-17T02:35:07;98687.19;;;13.51;84.69
66880;BME280;53789;51.392;10.234;2022-10-17T02:35:38;98688.00;;;13.52;85.94
66880;BME280;53789;51.392;10.234;2022-10-17T02:36:08;98684.44;;;13.51;85.69
66880;BME280;53789;51.392;10.234;2022-10-17T02:36:45;98687.50;;;13.50;86.00
66880;BME280;53789;51.392;10.234;2022-10-17T02:37:10;98691.91;;;13.51;86.11
66880;BME280;53789;51.392;10.234;2022-10-17T02:37:35;98689.97;;;13.51;85.35
66880;BME280;53789;51.392;10.234;2022-10-17T02:37:58;98691.91;;;13.51;85.41
66880;BME280;53789;51.392;10.234;2022-10-17T02:38:21;98685.56;;;13.50;85.47
66880;BME280;53789;51.392;10.234;2022-10-17T02:38:44;98685.06;;;13.48;85.70
66880;BME280;53789;51.392;10.234;2022-10-17T02:39:07;98691.41;;;13.49;86.14
66880;BME280;53789;51.392;10.234;2022-10-17T02:39:30;98688.63;;;13.49;85.62
66880;BME280;53789;51.392;10.234;2022-10-17T02:39:54;98688.63;;;13.49;85.57
66880;BME280;53789;51.392;10.234;2022-10-17T02:40:17;98695.00;;;13.49;85.42
66880;BME280;53789;51.392;10.234;2022-10-17T02:40:41;98683.09;;;13.49;85.89
66880;BME280;53789;51.392;10.234;2022-10-17T02:41:07;98689.47;;;13.49;85.22
66880;BME280;53789;51.392;10.234;2022-10-17T02:41:30;98684.22;;;13.48;85.75
66880;BME280;53789;51.392;10.234;2022-10-17T02:41:55;98692.22;;;13.49;85.72
66880;BME280;53789;51.392;10.234;2022-10-17T02:42:21;98687.81;;;13.48;85.86
66880;BME280;53789;51.392;10.234;2022-10-17T02:42:44;98690.59;;;13.48;85.15
66880;BME280;53789;51.392;10.234;2022-10-17T02:43:06;98705.22;;;13.49;85.40
66880;BME280;53789;51.392;10.234;2022-10-17T02:43:27;98694.16;;;13.49;85.38
66880;BME280;53789;51.392;10.234;2022-10-17T02:43:50;98689.47;;;13.49;85.24
66880;BME280;53789;51.392;10.234;2022-10-17T02:44:11;98682.31;;;13.48;85.70
66880;BME280;53789;51.392;10.234;2022-10-17T02:44:36;98685.88;;;13.49;85.58
66880;BME280;53789;51.392;10.234;2022-10-17T02:45:01;98694.16;;;13.49;85.68
66880;BME280;53789;51.392;10.234;2022-10-17T02:45:26;98695.00;;;13.49;86.01
66880;BME280;53789;51.392;10.234;2022-10-17T02:45:48;98688.63;;;13.49;85.62
66880;BME280;53789;51.392;10.234;2022-10-17T02:46:11;98695.28;;;13.48;85.71
66880;BME280;53789;51.392;10.234;2022-10-17T02:46:35;98685.06;;;13.48;85.53
66880;BME280;53789;51.392;10.234;2022-10-17T02:47:34;98694.47;;;13.47;85.77